メインページ
METAR-TAF:

METAR-TAF

空港 :

ナンディ国際空港

ナンディ, フィジー

緯度: 17-45S, 経度: 177-27E, 海抜: 13m

現時点の気象観測

当レポートは52分前の13:00(UTC)に作成
の風 6kt
気温 23°C
湿度 78%
気圧 1008 hPa
視程10km以上
高度3000ftの雲はほとんどない

METAR: NFFN 101300Z 08006KT 9999 FEW030 23/19 Q1008 NOSIG

時間: 02:52 (13:52 UTC)

予報

当レポートは2時間51分前の11:01(UTC)に作成
予報は10日の 12時(UTC)から 11日の 12時(UTC)まで有効
南東の風 8kt
視程10km以上
高度3000ftの雲は散在している
高度5000ftの雲は散在している
10日の 23時(UTC)から 11日の 01時(UTC)まで徐々に
西の風 10kt
11日の 04時(UTC)から 11日の 06時(UTC)まで徐々に
南東の風 10kt

TAF: NFFN 101101Z 1012/1112 13008KT 9999 SCT030 SCT050 BECMG 1023/1101 28010KT BECMG 1104/1106 13010KT

4,000以上の空港の気象観測と天気予報(METAR報とTAF報)

利用可能な観測所は地図上に黄色い丸と赤い丸で示す。

丸の上にカーソルを重ねると観測所名を参照できる。

次にクリックすると気象観測と天気予報を参照できる。

マップの切り替え:黒色「×」印の緑ボタンをクリックして拡大、「-」印の緑ボタンをクリックして縮小、緑色の三角印をクリックして隣りの地図に切り替え


METAR-TAF: